sensor_id;sensor_type;location;lat;lon;timestamp;temperature;humidity
46181;DHT22;58963;50.438;30.594;2022-08-19T00:00:51;21.20;99.90
46181;DHT22;58963;50.438;30.594;2022-08-19T00:06:11;21.20;99.90
46181;DHT22;58963;50.438;30.594;2022-08-19T00:11:31;21.20;99.90
46181;DHT22;58963;50.438;30.594;2022-08-19T00:16:50;21.30;99.90
46181;DHT22;58963;50.438;30.594;2022-08-19T00:22:13;21.10;99.90
46181;DHT22;58963;50.438;30.594;2022-08-19T00:27:32;21.10;99.90
46181;DHT22;58963;50.438;30.594;2022-08-19T00:32:52;21.10;99.90
46181;DHT22;58963;50.438;30.594;2022-08-19T00:38:14;21.10;99.90
46181;DHT22;58963;50.438;30.594;2022-08-19T00:43:34;21.20;99.90
46181;DHT22;58963;50.438;30.594;2022-08-19T00:48:54;21.20;99.90
46181;DHT22;58963;50.438;30.594;2022-08-19T00:54:16;20.60;99.90
46181;DHT22;58963;50.438;30.594;2022-08-19T00:59:37;20.30;99.90
46181;DHT22;58963;50.438;30.594;2022-08-19T01:05:00;20.50;99.90
46181;DHT22;58963;50.438;30.594;2022-08-19T01:10:24;20.40;99.90
46181;DHT22;58963;50.438;30.594;2022-08-19T01:15:50;20.40;99.90
46181;DHT22;58963;50.438;30.594;2022-08-19T01:21:25;20.40;99.90
46181;DHT22;58963;50.438;30.594;2022-08-19T01:26:46;20.20;99.90
46181;DHT22;58963;50.438;30.594;2022-08-19T01:32:08;20.00;99.90
46181;DHT22;58963;50.438;30.594;2022-08-19T01:37:28;19.90;99.90
46181;DHT22;58963;50.438;30.594;2022-08-19T01:42:50;19.90;99.90
46181;DHT22;58963;50.438;30.594;2022-08-19T01:48:11;19.80;99.90
46181;DHT22;58963;50.438;30.594;2022-08-19T01:53:31;19.80;99.90
46181;DHT22;58963;50.438;30.594;2022-08-19T01:58:58;19.70;99.90
46181;DHT22;58963;50.438;30.594;2022-08-19T02:04:18;19.80;99.90
46181;DHT22;58963;50.438;30.594;2022-08-19T02:09:37;19.90;99.90
46181;DHT22;58963;50.438;30.594;2022-08-19T02:14:58;19.60;99.90
46181;DHT22;58963;50.438;30.594;2022-08-19T02:20:18;19.40;99.90
46181;DHT22;58963;50.438;30.594;2022-08-19T02:25:38;19.30;99.90
46181;DHT22;58963;50.438;30.594;2022-08-19T02:30:57;19.50;99.90
46181;DHT22;58963;50.438;30.594;2022-08-19T02:36:19;19.50;99.90
46181;DHT22;58963;50.438;30.594;2022-08-19T02:41:38;19.40;99.90
46181;DHT22;58963;50.438;30.594;2022-08-19T02:46:58;19.40;99.90
46181;DHT22;58963;50.438;30.594;2022-08-19T02:52:17;19.20;99.90
46181;DHT22;58963;50.438;30.594;2022-08-19T02:57:36;19.30;99.90
46181;DHT22;58963;50.438;30.594;2022-08-19T03:02:55;19.20;99.90
46181;DHT22;58963;50.438;30.594;2022-08-19T03:08:15;19.70;99.90
46181;DHT22;58963;50.438;30.594;2022-08-19T03:13:35;20.30;99.90
46181;DHT22;58963;50.438;30.594;2022-08-19T03:18:56;20.10;99.90
46181;DHT22;58963;50.438;30.594;2022-08-19T03:24:19;19.70;99.90
46181;DHT22;58963;50.438;30.594;2022-08-19T03:29:39;19.50;99.90
46181;DHT22;58963;50.438;30.594;2022-08-19T03:34:59;19.40;99.90
46181;DHT22;58963;50.438;30.594;2022-08-19T03:40:18;19.40;99.90
46181;DHT22;58963;50.438;30.594;2022-08-19T03:45:38;19.30;99.90
46181;DHT22;58963;50.438;30.594;2022-08-19T03:50:57;19.20;99.90
46181;DHT22;58963;50.438;30.594;2022-08-19T03:56:18;19.20;99.90
46181;DHT22;58963;50.438;30.594;2022-08-19T04:01:38;19.20;99.90
46181;DHT22;58963;50.438;30.594;2022-08-19T04:06:57;19.30;99.90
46181;DHT22;58963;50.438;30.594;2022-08-19T04:12:16;19.30;99.90
46181;DHT22;58963;50.438;30.594;2022-08-19T04:17:35;19.50;99.90
46181;DHT22;58963;50.438;30.594;2022-08-19T04:22:56;19.60;99.90
46181;DHT22;58963;50.438;30.594;2022-08-19T04:28:16;19.70;99.90
46181;DHT22;58963;50.438;30.594;2022-08-19T04:33:35;19.90;99.90
46181;DHT22;58963;50.438;30.594;2022-08-19T04:38:59;20.40;99.90
46181;DHT22;58963;50.438;30.594;2022-08-19T04:44:19;20.70;99.90
46181;DHT22;58963;50.438;30.594;2022-08-19T04:49:39;20.70;99.90
46181;DHT22;58963;50.438;30.594;2022-08-19T04:54:58;20.80;99.90
46181;DHT22;58963;50.438;30.594;2022-08-19T05:00:18;21.00;99.90
46181;DHT22;58963;50.438;30.594;2022-08-19T05:05:40;21.00;99.90
46181;DHT22;58963;50.438;30.594;2022-08-19T05:11:00;21.10;99.90
46181;DHT22;58963;50.438;30.594;2022-08-19T05:16:21;21.30;99.90
46181;DHT22;58963;50.438;30.594;2022-08-19T05:21:42;22.10;99.90
46181;DHT22;58963;50.438;30.594;2022-08-19T05:27:20;22.80;99.90
46181;DHT22;58963;50.438;30.594;2022-08-19T05:32:40;24.10;99.90
46181;DHT22;58963;50.438;30.594;2022-08-19T05:37:59;25.50;98.50
46181;DHT22;58963;50.438;30.594;2022-08-19T05:43:19;26.00;95.60
46181;DHT22;58963;50.438;30.594;2022-08-19T05:48:38;27.20;90.60
46181;DHT22;58963;50.438;30.594;2022-08-19T05:53:58;28.30;82.80
46181;DHT22;58963;50.438;30.594;2022-08-19T05:59:17;28.70;77.50
46181;DHT22;58963;50.438;30.594;2022-08-19T06:04:38;29.60;90.20
46181;DHT22;58963;50.438;30.594;2022-08-19T06:10:10;30.60;75.40
46181;DHT22;58963;50.438;30.594;2022-08-19T06:15:30;30.90;65.90
46181;DHT22;58963;50.438;30.594;2022-08-19T06:20:50;31.00;66.50
46181;DHT22;58963;50.438;30.594;2022-08-19T06:26:12;31.20;64.20
46181;DHT22;58963;50.438;30.594;2022-08-19T06:31:31;31.50;65.60
46181;DHT22;58963;50.438;30.594;2022-08-19T06:36:53;31.70;66.60
46181;DHT22;58963;50.438;30.594;2022-08-19T06:42:12;32.50;60.60
46181;DHT22;58963;50.438;30.594;2022-08-19T06:47:35;32.90;68.50
46181;DHT22;58963;50.438;30.594;2022-08-19T06:52:55;33.00;58.40
46181;DHT22;58963;50.438;30.594;2022-08-19T06:58:14;33.70;64.80
46181;DHT22;58963;50.438;30.594;2022-08-19T07:03:35;34.20;54.30
46181;DHT22;58963;50.438;30.594;2022-08-19T07:08:54;33.40;58.00
46181;DHT22;58963;50.438;30.594;2022-08-19T07:14:14;35.20;53.90
46181;DHT22;58963;50.438;30.594;2022-08-19T07:19:37;34.80;52.10
46181;DHT22;58963;50.438;30.594;2022-08-19T07:24:57;34.60;53.00
46181;DHT22;58963;50.438;30.594;2022-08-19T07:30:16;35.30;54.00
46181;DHT22;58963;50.438;30.594;2022-08-19T07:35:36;36.00;58.20
46181;DHT22;58963;50.438;30.594;2022-08-19T07:40:55;36.40;50.70
46181;DHT22;58963;50.438;30.594;2022-08-19T07:46:14;34.80;51.40
46181;DHT22;58963;50.438;30.594;2022-08-19T07:51:34;35.40;52.10
46181;DHT22;58963;50.438;30.594;2022-08-19T07:56:54;35.90;53.50
46181;DHT22;58963;50.438;30.594;2022-08-19T08:02:14;36.50;51.10
46181;DHT22;58963;50.438;30.594;2022-08-19T08:07:33;36.80;49.20
46181;DHT22;58963;50.438;30.594;2022-08-19T08:13:14;36.90;56.30
46181;DHT22;58963;50.438;30.594;2022-08-19T08:18:34;37.20;54.80
46181;DHT22;58963;50.438;30.594;2022-08-19T08:24:00;36.90;49.10
46181;DHT22;58963;50.438;30.594;2022-08-19T08:29:19;36.20;52.00
46181;DHT22;58963;50.438;30.594;2022-08-19T08:34:39;36.80;49.60
46181;DHT22;58963;50.438;30.594;2022-08-19T08:39:58;35.50;49.60
46181;DHT22;58963;50.438;30.594;2022-08-19T08:45:20;34.80;51.70
46181;DHT22;58963;50.438;30.594;2022-08-19T08:50:42;36.30;52.70
46181;DHT22;58963;50.438;30.594;2022-08-19T08:56:03;36.60;57.50
46181;DHT22;58963;50.438;30.594;2022-08-19T09:01:25;37.20;51.80
46181;DHT22;58963;50.438;30.594;2022-08-19T09:12:38;36.90;48.70
46181;DHT22;58963;50.438;30.594;2022-08-19T09:18:04;38.20;48.60
46181;DHT22;58963;50.438;30.594;2022-08-19T09:23:23;37.90;48.80
46181;DHT22;58963;50.438;30.594;2022-08-19T09:28:45;37.00;48.50
46181;DHT22;58963;50.438;30.594;2022-08-19T09:34:04;34.30;51.70
46181;DHT22;58963;50.438;30.594;2022-08-19T09:39:24;33.30;53.70
46181;DHT22;58963;50.438;30.594;2022-08-19T09:44:43;33.40;55.20
46181;DHT22;58963;50.438;30.594;2022-08-19T09:50:08;34.70;54.10
46181;DHT22;58963;50.438;30.594;2022-08-19T09:55:27;34.00;53.00
46181;DHT22;58963;50.438;30.594;2022-08-19T10:00:47;32.80;56.60
46181;DHT22;58963;50.438;30.594;2022-08-19T10:06:06;31.70;58.20
46181;DHT22;58963;50.438;30.594;2022-08-19T10:11:25;30.80;61.70
46181;DHT22;58963;50.438;30.594;2022-08-19T10:16:45;31.10;61.30
46181;DHT22;58963;50.438;30.594;2022-08-19T10:22:06;31.10;62.20
46181;DHT22;58963;50.438;30.594;2022-08-19T10:27:25;31.10;62.90
46181;DHT22;58963;50.438;30.594;2022-08-19T10:32:46;30.40;65.50
46181;DHT22;58963;50.438;30.594;2022-08-19T10:38:06;30.00;67.70
46181;DHT22;58963;50.438;30.594;2022-08-19T10:43:25;30.50;66.00
46181;DHT22;58963;50.438;30.594;2022-08-19T10:48:45;31.10;66.20
46181;DHT22;58963;50.438;30.594;2022-08-19T10:54:05;31.70;62.60
46181;DHT22;58963;50.438;30.594;2022-08-19T10:59:27;31.20;63.30
46181;DHT22;58963;50.438;30.594;2022-08-19T11:04:47;30.60;72.60
46181;DHT22;58963;50.438;30.594;2022-08-19T11:10:11;30.70;66.30
46181;DHT22;58963;50.438;30.594;2022-08-19T11:15:33;30.50;67.90
46181;DHT22;58963;50.438;30.594;2022-08-19T11:20:53;29.80;67.90
46181;DHT22;58963;50.438;30.594;2022-08-19T11:26:13;29.60;74.40
46181;DHT22;58963;50.438;30.594;2022-08-19T11:31:35;29.50;70.70
46181;DHT22;58963;50.438;30.594;2022-08-19T11:36:55;29.60;74.50
46181;DHT22;58963;50.438;30.594;2022-08-19T11:42:18;29.50;72.90
46181;DHT22;58963;50.438;30.594;2022-08-19T11:47:58;29.20;75.20
46181;DHT22;58963;50.438;30.594;2022-08-19T11:53:18;29.00;77.00
46181;DHT22;58963;50.438;30.594;2022-08-19T11:58:39;28.90;80.00
46181;DHT22;58963;50.438;30.594;2022-08-19T12:04:00;28.80;76.60
46181;DHT22;58963;50.438;30.594;2022-08-19T12:09:19;28.70;74.20
46181;DHT22;58963;50.438;30.594;2022-08-19T12:14:41;28.80;80.30
46181;DHT22;58963;50.438;30.594;2022-08-19T12:20:00;29.30;72.50
46181;DHT22;58963;50.438;30.594;2022-08-19T12:25:19;29.10;74.30
46181;DHT22;58963;50.438;30.594;2022-08-19T12:30:39;28.50;77.70
46181;DHT22;58963;50.438;30.594;2022-08-19T12:36:08;28.20;81.80
46181;DHT22;58963;50.438;30.594;2022-08-19T12:41:27;27.70;84.90
46181;DHT22;58963;50.438;30.594;2022-08-19T12:46:47;27.30;90.00
46181;DHT22;58963;50.438;30.594;2022-08-19T12:52:11;27.10;87.10
46181;DHT22;58963;50.438;30.594;2022-08-19T12:57:34;27.00;85.80
46181;DHT22;58963;50.438;30.594;2022-08-19T13:02:54;27.00;90.90
46181;DHT22;58963;50.438;30.594;2022-08-19T13:08:14;26.90;87.60
46181;DHT22;58963;50.438;30.594;2022-08-19T13:13:34;27.00;91.00
46181;DHT22;58963;50.438;30.594;2022-08-19T13:18:55;27.10;85.50
46181;DHT22;58963;50.438;30.594;2022-08-19T13:24:14;26.80;90.60
46181;DHT22;58963;50.438;30.594;2022-08-19T13:29:34;26.70;90.30
46181;DHT22;58963;50.438;30.594;2022-08-19T13:35:13;26.70;91.00
46181;DHT22;58963;50.438;30.594;2022-08-19T13:40:33;26.80;87.30
46181;DHT22;58963;50.438;30.594;2022-08-19T13:45:53;26.70;90.30
46181;DHT22;58963;50.438;30.594;2022-08-19T13:51:16;26.40;87.30
46181;DHT22;58963;50.438;30.594;2022-08-19T13:56:43;26.30;88.50
46181;DHT22;58963;50.438;30.594;2022-08-19T14:02:03;26.40;86.50
46181;DHT22;58963;50.438;30.594;2022-08-19T14:07:24;26.40;90.00
46181;DHT22;58963;50.438;30.594;2022-08-19T14:12:44;26.60;90.80
46181;DHT22;58963;50.438;30.594;2022-08-19T14:18:03;26.60;90.30
46181;DHT22;58963;50.438;30.594;2022-08-19T14:23:23;26.20;89.90
46181;DHT22;58963;50.438;30.594;2022-08-19T14:28:43;26.20;90.50
46181;DHT22;58963;50.438;30.594;2022-08-19T14:34:03;26.10;91.90
46181;DHT22;58963;50.438;30.594;2022-08-19T14:39:22;26.00;89.00
46181;DHT22;58963;50.438;30.594;2022-08-19T14:44:42;26.20;87.20
46181;DHT22;58963;50.438;30.594;2022-08-19T14:50:01;26.00;89.20
46181;DHT22;58963;50.438;30.594;2022-08-19T14:55:21;26.00;90.60
46181;DHT22;58963;50.438;30.594;2022-08-19T15:00:41;25.90;91.20
46181;DHT22;58963;50.438;30.594;2022-08-19T15:06:03;26.00;90.80
46181;DHT22;58963;50.438;30.594;2022-08-19T15:11:24;26.00;89.20
46181;DHT22;58963;50.438;30.594;2022-08-19T15:16:45;25.90;91.40
46181;DHT22;58963;50.438;30.594;2022-08-19T15:22:04;25.80;89.00
46181;DHT22;58963;50.438;30.594;2022-08-19T15:27:24;25.60;90.10
46181;DHT22;58963;50.438;30.594;2022-08-19T15:32:43;25.20;90.30
46181;DHT22;58963;50.438;30.594;2022-08-19T15:38:03;25.20;90.90
46181;DHT22;58963;50.438;30.594;2022-08-19T15:43:24;25.20;92.00
46181;DHT22;58963;50.438;30.594;2022-08-19T15:48:44;25.20;91.30
46181;DHT22;58963;50.438;30.594;2022-08-19T15:54:06;24.90;92.40
46181;DHT22;58963;50.438;30.594;2022-08-19T15:59:26;24.90;92.80
46181;DHT22;58963;50.438;30.594;2022-08-19T16:05:07;24.80;91.70
46181;DHT22;58963;50.438;30.594;2022-08-19T16:10:46;24.60;93.30
46181;DHT22;58963;50.438;30.594;2022-08-19T16:16:06;24.70;91.90
46181;DHT22;58963;50.438;30.594;2022-08-19T16:21:27;24.50;93.50
46181;DHT22;58963;50.438;30.594;2022-08-19T16:26:51;24.70;92.90
46181;DHT22;58963;50.438;30.594;2022-08-19T16:32:10;24.60;93.00
46181;DHT22;58963;50.438;30.594;2022-08-19T16:37:30;24.50;93.30
46181;DHT22;58963;50.438;30.594;2022-08-19T16:42:49;24.30;92.70
46181;DHT22;58963;50.438;30.594;2022-08-19T16:48:10;24.20;94.00
46181;DHT22;58963;50.438;30.594;2022-08-19T16:53:29;24.00;94.80
46181;DHT22;58963;50.438;30.594;2022-08-19T16:58:50;24.00;95.50
46181;DHT22;58963;50.438;30.594;2022-08-19T17:04:10;23.90;95.40
46181;DHT22;58963;50.438;30.594;2022-08-19T17:09:29;23.70;99.90
46181;DHT22;58963;50.438;30.594;2022-08-19T17:14:49;23.30;99.00
46181;DHT22;58963;50.438;30.594;2022-08-19T17:20:09;23.00;99.90
46181;DHT22;58963;50.438;30.594;2022-08-19T17:25:29;23.00;99.90
46181;DHT22;58963;50.438;30.594;2022-08-19T17:30:49;23.20;99.90
46181;DHT22;58963;50.438;30.594;2022-08-19T17:36:09;23.10;99.90
46181;DHT22;58963;50.438;30.594;2022-08-19T17:41:28;23.00;99.90
46181;DHT22;58963;50.438;30.594;2022-08-19T17:46:48;22.60;99.90
46181;DHT22;58963;50.438;30.594;2022-08-19T17:52:08;22.50;99.90
46181;DHT22;58963;50.438;30.594;2022-08-19T17:57:27;22.50;99.90
46181;DHT22;58963;50.438;30.594;2022-08-19T18:02:52;22.40;99.90
46181;DHT22;58963;50.438;30.594;2022-08-19T18:08:12;22.20;99.90
46181;DHT22;58963;50.438;30.594;2022-08-19T18:13:31;22.30;99.90
46181;DHT22;58963;50.438;30.594;2022-08-19T18:18:50;22.30;99.90
46181;DHT22;58963;50.438;30.594;2022-08-19T18:24:11;22.20;99.90
46181;DHT22;58963;50.438;30.594;2022-08-19T18:29:31;22.10;99.90
46181;DHT22;58963;50.438;30.594;2022-08-19T18:34:52;22.00;99.90
46181;DHT22;58963;50.438;30.594;2022-08-19T18:40:16;21.70;99.90
46181;DHT22;58963;50.438;30.594;2022-08-19T18:45:54;21.70;99.90
46181;DHT22;58963;50.438;30.594;2022-08-19T18:51:32;21.60;99.90
46181;DHT22;58963;50.438;30.594;2022-08-19T18:56:53;21.40;99.90
46181;DHT22;58963;50.438;30.594;2022-08-19T19:02:13;21.30;99.90
46181;DHT22;58963;50.438;30.594;2022-08-19T19:07:33;21.10;99.90
46181;DHT22;58963;50.438;30.594;2022-08-19T19:12:53;21.00;99.90
46181;DHT22;58963;50.438;30.594;2022-08-19T19:18:12;20.90;99.90
46181;DHT22;58963;50.438;30.594;2022-08-19T19:23:31;20.70;99.90
46181;DHT22;58963;50.438;30.594;2022-08-19T19:28:51;20.50;99.90
46181;DHT22;58963;50.438;30.594;2022-08-19T19:34:12;20.40;99.90
46181;DHT22;58963;50.438;30.594;2022-08-19T19:39:32;20.50;99.90
46181;DHT22;58963;50.438;30.594;2022-08-19T19:44:53;20.40;99.90
46181;DHT22;58963;50.438;30.594;2022-08-19T19:50:13;20.30;99.90
46181;DHT22;58963;50.438;30.594;2022-08-19T19:55:33;20.10;99.90
46181;DHT22;58963;50.438;30.594;2022-08-19T20:00:54;20.10;99.90
46181;DHT22;58963;50.438;30.594;2022-08-19T20:06:15;20.10;99.90
46181;DHT22;58963;50.438;30.594;2022-08-19T20:11:43;20.00;99.90
46181;DHT22;58963;50.438;30.594;2022-08-19T20:17:03;20.00;99.90
46181;DHT22;58963;50.438;30.594;2022-08-19T20:22:24;20.00;99.90
46181;DHT22;58963;50.438;30.594;2022-08-19T20:27:43;20.00;99.90
46181;DHT22;58963;50.438;30.594;2022-08-19T20:33:03;20.00;99.90
46181;DHT22;58963;50.438;30.594;2022-08-19T20:38:24;19.80;99.90
46181;DHT22;58963;50.438;30.594;2022-08-19T20:43:43;19.50;99.90
46181;DHT22;58963;50.438;30.594;2022-08-19T20:49:03;19.50;99.90
46181;DHT22;58963;50.438;30.594;2022-08-19T20:54:22;19.40;99.90
46181;DHT22;58963;50.438;30.594;2022-08-19T20:59:42;19.50;99.90
46181;DHT22;58963;50.438;30.594;2022-08-19T21:05:01;19.50;99.90
46181;DHT22;58963;50.438;30.594;2022-08-19T21:10:21;19.40;99.90
46181;DHT22;58963;50.438;30.594;2022-08-19T21:15:40;19.20;99.90
46181;DHT22;58963;50.438;30.594;2022-08-19T21:21:02;19.10;99.90
46181;DHT22;58963;50.438;30.594;2022-08-19T21:26:21;19.10;99.90
46181;DHT22;58963;50.438;30.594;2022-08-19T21:31:42;19.30;99.90
46181;DHT22;58963;50.438;30.594;2022-08-19T21:37:01;19.50;99.90
46181;DHT22;58963;50.438;30.594;2022-08-19T21:42:24;19.60;99.90
46181;DHT22;58963;50.438;30.594;2022-08-19T21:47:43;19.70;99.90
46181;DHT22;58963;50.438;30.594;2022-08-19T21:53:03;19.50;99.90
46181;DHT22;58963;50.438;30.594;2022-08-19T21:58:22;19.40;99.90
46181;DHT22;58963;50.438;30.594;2022-08-19T22:03:41;19.40;99.90
46181;DHT22;58963;50.438;30.594;2022-08-19T22:09:01;19.30;99.90
46181;DHT22;58963;50.438;30.594;2022-08-19T22:14:20;19.30;99.90
46181;DHT22;58963;50.438;30.594;2022-08-19T22:19:40;19.10;99.90
46181;DHT22;58963;50.438;30.594;2022-08-19T22:25:08;19.00;99.90
46181;DHT22;58963;50.438;30.594;2022-08-19T22:30:29;18.90;99.90
46181;DHT22;58963;50.438;30.594;2022-08-19T22:35:51;19.00;99.90
46181;DHT22;58963;50.438;30.594;2022-08-19T22:41:11;19.20;99.90
46181;DHT22;58963;50.438;30.594;2022-08-19T22:46:30;19.30;99.90
46181;DHT22;58963;50.438;30.594;2022-08-19T22:51:51;19.20;99.90
46181;DHT22;58963;50.438;30.594;2022-08-19T22:57:30;19.20;99.90
46181;DHT22;58963;50.438;30.594;2022-08-19T23:02:49;19.20;99.90
46181;DHT22;58963;50.438;30.594;2022-08-19T23:08:09;19.30;99.90
46181;DHT22;58963;50.438;30.594;2022-08-19T23:13:28;19.30;99.90
46181;DHT22;58963;50.438;30.594;2022-08-19T23:18:49;19.30;99.90
46181;DHT22;58963;50.438;30.594;2022-08-19T23:24:09;19.20;99.90
46181;DHT22;58963;50.438;30.594;2022-08-19T23:29:29;19.10;99.90
46181;DHT22;58963;50.438;30.594;2022-08-19T23:35:08;19.10;99.90
46181;DHT22;58963;50.438;30.594;2022-08-19T23:40:27;19.10;99.90
46181;DHT22;58963;50.438;30.594;2022-08-19T23:45:46;19.20;99.90
46181;DHT22;58963;50.438;30.594;2022-08-19T23:51:09;19.30;99.90
46181;DHT22;58963;50.438;30.594;2022-08-19T23:56:29;19.10;99.90
